AIC179 VABB-VECC
Flight info
| Callsign | AIC179 |
|---|---|
| Flight time | 1h 59m |
| Altitude | 35000 |
| Route | ANOLI2A NONEN Q19 KAMLO W108 NNP G450 JJS JJS2A |
| Aircraft | B77W/H-SDE1E2E3FGHIJ2J3J4J5M1RWXY/LB1D1 |
Departure
| Time | 2026-04-25 00:56 |
|---|---|
| Airport | Chhatrapati Shivaji Maharaj International Airport (VABB) |
Arrival
| Time | 2026-04-25 02:55 |
|---|---|
| Airport | Netaji Subhash Chandra Bose International Airport (VECC) |
| Time | Latitude | Longitude | Altitude | Speed | Heading |
|---|---|---|---|---|---|
| 2026-04-25 00:35 | 19.09320 | 72.87153 | 44 ft | 0 kts | 359° |
| 2026-04-25 00:46 | 19.09312 | 72.87153 | 43 ft | 2 kts | 358° |
| 2026-04-25 00:46 | 19.09283 | 72.87154 | 41 ft | 2 kts | 358° |
| 2026-04-25 00:47 | 19.09269 | 72.87155 | 41 ft | 2 kts | 358° |
| 2026-04-25 00:47 | 19.09253 | 72.87156 | 40 ft | 2 kts | 358° |
| 2026-04-25 00:47 | 19.09240 | 72.87155 | 39 ft | 1 kts | 31° |
| 2026-04-25 00:47 | 19.09233 | 72.87146 | 39 ft | 1 kts | 84° |
| 2026-04-25 00:48 | 19.09233 | 72.87139 | 39 ft | 0 kts | 90° |
| 2026-04-25 00:50 | 19.09233 | 72.87143 | 39 ft | 2 kts | 89° |
| 2026-04-25 00:51 | 19.09234 | 72.87174 | 39 ft | 5 kts | 87° |
| 2026-04-25 00:51 | 19.09235 | 72.87209 | 39 ft | 4 kts | 91° |
| 2026-04-25 00:51 | 19.09219 | 72.87238 | 39 ft | 6 kts | 147° |
| 2026-04-25 00:51 | 19.09157 | 72.87257 | 36 ft | 12 kts | 175° |
| 2026-04-25 00:52 | 19.09080 | 72.87279 | 34 ft | 11 kts | 135° |
| 2026-04-25 00:52 | 19.09055 | 72.87357 | 33 ft | 11 kts | 93° |
| 2026-04-25 00:52 | 19.09054 | 72.87432 | 33 ft | 9 kts | 89° |
| 2026-04-25 00:52 | 19.09055 | 72.87496 | 34 ft | 8 kts | 89° |
| 2026-04-25 00:53 | 19.09056 | 72.87553 | 34 ft | 7 kts | 90° |
| 2026-04-25 00:53 | 19.09055 | 72.87600 | 35 ft | 5 kts | 90° |
| 2026-04-25 00:53 | 19.09056 | 72.87646 | 35 ft | 5 kts | 89° |
| 2026-04-25 00:53 | 19.09056 | 72.87686 | 36 ft | 6 kts | 89° |
| 2026-04-25 00:54 | 19.09056 | 72.87769 | 37 ft | 15 kts | 101° |
| 2026-04-25 00:54 | 19.08992 | 72.87811 | 39 ft | 10 kts | 178° |
| 2026-04-25 00:54 | 19.08925 | 72.87807 | 39 ft | 7 kts | 197° |
| 2026-04-25 00:54 | 19.08893 | 72.87762 | 38 ft | 8 kts | 253° |
| 2026-04-25 00:55 | 19.08884 | 72.87698 | 37 ft | 9 kts | 269° |
| 2026-04-25 00:55 | 19.08882 | 72.87621 | 35 ft | 13 kts | 269° |
| 2026-04-25 00:55 | 19.08880 | 72.87472 | 33 ft | 27 kts | 269° |
| 2026-04-25 00:55 | 19.08873 | 72.86994 | 33 ft | 107 kts | 269° |
| 2026-04-25 00:56 | 19.08858 | 72.85915 | 30 ft | 183 kts | 269° |
| 2026-04-25 00:56 | 19.08826 | 72.84411 | 396 ft | 222 kts | 269° |
| 2026-04-25 00:56 | 19.08734 | 72.82748 | 1477 ft | 233 kts | 266° |
| 2026-04-25 00:56 | 19.08596 | 72.80988 | 2238 ft | 259 kts | 270° |
| 2026-04-25 00:57 | 19.08559 | 72.79198 | 3547 ft | 235 kts | 274° |
| 2026-04-25 00:57 | 19.08588 | 72.77291 | 3547 ft | 276 kts | 276° |
| 2026-04-25 00:57 | 19.08673 | 72.75368 | 4726 ft | 259 kts | 278° |
| 2026-04-25 00:57 | 19.08931 | 72.73592 | 5889 ft | 239 kts | 290° |
| 2026-04-25 00:58 | 19.09566 | 72.71915 | 6202 ft | 257 kts | 307° |
| 2026-04-25 00:58 | 19.10778 | 72.70541 | 6812 ft | 256 kts | 328° |
| 2026-04-25 00:58 | 19.12380 | 72.69720 | 7485 ft | 255 kts | 349° |
| 2026-04-25 00:58 | 19.14153 | 72.69554 | 7797 ft | 270 kts | 9° |
| 2026-04-25 00:59 | 19.15902 | 72.70239 | 7531 ft | 274 kts | 37° |
| 2026-04-25 00:59 | 19.17150 | 72.71765 | 7272 ft | 274 kts | 63° |
| 2026-04-25 00:59 | 19.17904 | 72.73666 | 7385 ft | 286 kts | 68° |
| 2026-04-25 00:59 | 19.18605 | 72.75584 | 8412 ft | 279 kts | 69° |
| 2026-04-25 01:00 | 19.19299 | 72.77490 | 9227 ft | 280 kts | 69° |
| 2026-04-25 01:00 | 19.19998 | 72.79411 | 9938 ft | 284 kts | 70° |
| 2026-04-25 01:00 | 19.20726 | 72.81412 | 10438 ft | 299 kts | 70° |
| 2026-04-25 01:00 | 19.21490 | 72.83515 | 10873 ft | 315 kts | 70° |
| 2026-04-25 01:01 | 19.22304 | 72.85757 | 11314 ft | 332 kts | 70° |
| 2026-04-25 01:01 | 19.23148 | 72.88081 | 11782 ft | 347 kts | 70° |
| 2026-04-25 01:01 | 19.24028 | 72.90509 | 12273 ft | 362 kts | 70° |
| 2026-04-25 01:01 | 19.24945 | 72.93037 | 12821 ft | 376 kts | 70° |
| 2026-04-25 01:02 | 19.25883 | 72.95624 | 13533 ft | 384 kts | 70° |
| 2026-04-25 01:02 | 19.26845 | 72.98277 | 14339 ft | 389 kts | 70° |
| 2026-04-25 01:02 | 19.27816 | 73.00957 | 15268 ft | 391 kts | 70° |
| 2026-04-25 01:02 | 19.28786 | 73.03636 | 16194 ft | 393 kts | 69° |
| 2026-04-25 01:03 | 19.29768 | 73.06348 | 16958 ft | 398 kts | 69° |
| 2026-04-25 01:03 | 19.30776 | 73.09134 | 17679 ft | 405 kts | 69° |
| 2026-04-25 01:03 | 19.31785 | 73.11923 | 18560 ft | 407 kts | 69° |
| 2026-04-25 01:03 | 19.32797 | 73.14722 | 19409 ft | 409 kts | 69° |
| 2026-04-25 01:04 | 19.33819 | 73.17550 | 20086 ft | 416 kts | 68° |
| 2026-04-25 01:04 | 19.34859 | 73.20428 | 20802 ft | 422 kts | 68° |
| 2026-04-25 01:04 | 19.35911 | 73.23344 | 21602 ft | 425 kts | 68° |
| 2026-04-25 01:04 | 19.36954 | 73.26236 | 22329 ft | 429 kts | 68° |
| 2026-04-25 01:05 | 19.38032 | 73.29225 | 23036 ft | 433 kts | 68° |
| 2026-04-25 01:05 | 19.39112 | 73.32222 | 23670 ft | 439 kts | 69° |
| 2026-04-25 01:05 | 19.40211 | 73.35272 | 24232 ft | 446 kts | 69° |
| 2026-04-25 01:05 | 19.41321 | 73.38357 | 24828 ft | 452 kts | 69° |
| 2026-04-25 01:06 | 19.42449 | 73.41492 | 25406 ft | 458 kts | 69° |
| 2026-04-25 01:06 | 19.43592 | 73.44670 | 26081 ft | 462 kts | 69° |
| 2026-04-25 01:06 | 19.44743 | 73.47875 | 26715 ft | 466 kts | 70° |
| 2026-04-25 01:06 | 19.45898 | 73.51095 | 27248 ft | 472 kts | 70° |
| 2026-04-25 01:07 | 19.47065 | 73.54347 | 27817 ft | 477 kts | 70° |
| 2026-04-25 01:07 | 19.48257 | 73.57671 | 28365 ft | 482 kts | 70° |
| 2026-04-25 01:07 | 19.49452 | 73.61008 | 28841 ft | 489 kts | 71° |
| 2026-04-25 01:07 | 19.50661 | 73.64385 | 29395 ft | 493 kts | 71° |
| 2026-04-25 01:08 | 19.51887 | 73.67814 | 30012 ft | 494 kts | 71° |
| 2026-04-25 01:08 | 19.53098 | 73.71202 | 30485 ft | 499 kts | 71° |
| 2026-04-25 01:08 | 19.54339 | 73.74675 | 30814 ft | 506 kts | 71° |
| 2026-04-25 01:08 | 19.55596 | 73.78200 | 31145 ft | 512 kts | 71° |
| 2026-04-25 01:09 | 19.56853 | 73.81724 | 31482 ft | 518 kts | 72° |
| 2026-04-25 01:09 | 19.58131 | 73.85310 | 31877 ft | 522 kts | 72° |
| 2026-04-25 01:09 | 19.59413 | 73.88908 | 32325 ft | 524 kts | 72° |
| 2026-04-25 01:09 | 19.60716 | 73.92571 | 32590 ft | 531 kts | 72° |
| 2026-04-25 01:10 | 19.62020 | 73.96237 | 32781 ft | 538 kts | 72° |
| 2026-04-25 01:10 | 19.63361 | 74.00013 | 33199 ft | 541 kts | 72° |
| 2026-04-25 01:10 | 19.64678 | 74.03718 | 33827 ft | 539 kts | 72° |
| 2026-04-25 01:10 | 19.65991 | 74.07415 | 34590 ft | 533 kts | 72° |
| 2026-04-25 01:11 | 19.67290 | 74.11076 | 34992 ft | 532 kts | 71° |
| 2026-04-25 01:11 | 19.69881 | 74.18386 | 35007 ft | 526 kts | 72° |
| 2026-04-25 01:12 | 19.72463 | 74.25684 | 35005 ft | 529 kts | 71° |
| 2026-04-25 01:12 | 19.75039 | 74.32974 | 35002 ft | 529 kts | 71° |
| 2026-04-25 01:13 | 19.77638 | 74.40340 | 34997 ft | 528 kts | 72° |
| 2026-04-25 01:13 | 19.80209 | 74.47639 | 34993 ft | 531 kts | 72° |
| 2026-04-25 01:14 | 19.82818 | 74.55057 | 34991 ft | 532 kts | 72° |
| 2026-04-25 01:14 | 19.85405 | 74.62424 | 34994 ft | 534 kts | 72° |
| 2026-04-25 01:15 | 19.87990 | 74.69792 | 34978 ft | 532 kts | 72° |
| 2026-04-25 01:15 | 19.90586 | 74.77208 | 34984 ft | 535 kts | 72° |
| 2026-04-25 01:16 | 19.93180 | 74.84624 | 34977 ft | 535 kts | 72° |
| 2026-04-25 01:16 | 19.95773 | 74.92053 | 34979 ft | 536 kts | 72° |
| 2026-04-25 01:17 | 19.98388 | 74.99557 | 34972 ft | 537 kts | 72° |
| 2026-04-25 01:17 | 20.00983 | 75.07012 | 34979 ft | 540 kts | 72° |
| 2026-04-25 01:18 | 20.03581 | 75.14486 | 34987 ft | 537 kts | 72° |
| 2026-04-25 01:18 | 20.06189 | 75.22005 | 35005 ft | 539 kts | 72° |
| 2026-04-25 01:19 | 20.08785 | 75.29497 | 35009 ft | 538 kts | 72° |
| 2026-04-25 01:19 | 20.11371 | 75.36971 | 34993 ft | 538 kts | 72° |
| 2026-04-25 01:20 | 20.13950 | 75.44437 | 34993 ft | 537 kts | 72° |
| 2026-04-25 01:20 | 20.16517 | 75.51883 | 34992 ft | 539 kts | 72° |
| 2026-04-25 01:21 | 20.19094 | 75.59367 | 34990 ft | 536 kts | 72° |
| 2026-04-25 01:21 | 20.21655 | 75.66820 | 34979 ft | 538 kts | 72° |
| 2026-04-25 01:22 | 20.24221 | 75.74296 | 34973 ft | 539 kts | 72° |
| 2026-04-25 01:22 | 20.26785 | 75.81776 | 34970 ft | 537 kts | 73° |
| 2026-04-25 01:23 | 20.29364 | 75.89313 | 34971 ft | 539 kts | 72° |
| 2026-04-25 01:23 | 20.31922 | 75.96800 | 34973 ft | 539 kts | 72° |
| 2026-04-25 01:24 | 20.34497 | 76.04349 | 34976 ft | 538 kts | 73° |
| 2026-04-25 01:24 | 20.37049 | 76.11847 | 34977 ft | 540 kts | 72° |
| 2026-04-25 01:25 | 20.39597 | 76.19339 | 34987 ft | 540 kts | 72° |
| 2026-04-25 01:25 | 20.42152 | 76.26865 | 34988 ft | 540 kts | 73° |
| 2026-04-25 01:26 | 20.44712 | 76.34418 | 34984 ft | 540 kts | 73° |
| 2026-04-25 01:26 | 20.47266 | 76.41967 | 34979 ft | 541 kts | 73° |
| 2026-04-25 01:27 | 20.49834 | 76.49575 | 34971 ft | 553 kts | 72° |
| 2026-04-25 01:27 | 20.52471 | 76.57398 | 34956 ft | 562 kts | 72° |
| 2026-04-25 01:28 | 20.56415 | 76.69113 | 34919 ft | 562 kts | 73° |
| 2026-04-25 01:28 | 20.59046 | 76.76949 | 34911 ft | 562 kts | 73° |
| 2026-04-25 01:29 | 20.61676 | 76.84790 | 34905 ft | 560 kts | 73° |
| 2026-04-25 01:29 | 20.64307 | 76.92649 | 34905 ft | 562 kts | 73° |
| 2026-04-25 01:30 | 20.66929 | 77.00494 | 34909 ft | 562 kts | 72° |
| 2026-04-25 01:30 | 20.69551 | 77.08356 | 34912 ft | 563 kts | 72° |
| 2026-04-25 01:31 | 20.72170 | 77.16217 | 34908 ft | 563 kts | 72° |
| 2026-04-25 01:31 | 20.74796 | 77.24117 | 34910 ft | 564 kts | 72° |
| 2026-04-25 01:32 | 20.77406 | 77.31977 | 34913 ft | 562 kts | 72° |
| 2026-04-25 01:32 | 20.80003 | 77.39818 | 34911 ft | 563 kts | 72° |
| 2026-04-25 01:33 | 20.82619 | 77.47726 | 34915 ft | 564 kts | 72° |
| 2026-04-25 01:33 | 20.85208 | 77.55567 | 34913 ft | 563 kts | 72° |
| 2026-04-25 01:34 | 20.87507 | 77.63567 | 34917 ft | 562 kts | 76° |
| 2026-04-25 01:34 | 20.89657 | 77.71585 | 34900 ft | 562 kts | 77° |
| 2026-04-25 01:35 | 20.91763 | 77.79607 | 34883 ft | 560 kts | 81° |
| 2026-04-25 01:35 | 20.92981 | 77.87843 | 34892 ft | 559 kts | 85° |
| 2026-04-25 01:36 | 20.94060 | 77.96056 | 34901 ft | 558 kts | 85° |
| 2026-04-25 01:36 | 20.95138 | 78.04268 | 34905 ft | 557 kts | 85° |
| 2026-04-25 01:37 | 20.96218 | 78.12494 | 34906 ft | 557 kts | 85° |
| 2026-04-25 01:37 | 20.97295 | 78.20715 | 34902 ft | 558 kts | 85° |
| 2026-04-25 01:38 | 20.98366 | 78.28923 | 34900 ft | 559 kts | 85° |
| 2026-04-25 01:38 | 20.99436 | 78.37141 | 34911 ft | 558 kts | 85° |
| 2026-04-25 01:39 | 21.00506 | 78.45386 | 34921 ft | 560 kts | 85° |
| 2026-04-25 01:39 | 21.01572 | 78.53633 | 34932 ft | 560 kts | 85° |
| 2026-04-25 01:40 | 21.02635 | 78.61888 | 34937 ft | 559 kts | 85° |
| 2026-04-25 01:40 | 21.03688 | 78.70095 | 34919 ft | 559 kts | 85° |
| 2026-04-25 01:41 | 21.04743 | 78.78355 | 34911 ft | 560 kts | 85° |
| 2026-04-25 01:41 | 21.05793 | 78.86605 | 34903 ft | 560 kts | 85° |
| 2026-04-25 01:42 | 21.06834 | 78.94810 | 34887 ft | 561 kts | 85° |
| 2026-04-25 01:42 | 21.07879 | 79.03082 | 34884 ft | 560 kts | 85° |
| 2026-04-25 01:43 | 21.09726 | 79.11215 | 34882 ft | 564 kts | 75° |
| 2026-04-25 01:43 | 21.11942 | 79.19147 | 34880 ft | 563 kts | 75° |
| 2026-04-25 01:44 | 21.14198 | 79.27238 | 34886 ft | 564 kts | 75° |
| 2026-04-25 01:44 | 21.16418 | 79.35232 | 34894 ft | 565 kts | 75° |
| 2026-04-25 01:45 | 21.18641 | 79.43260 | 34898 ft | 563 kts | 75° |
| 2026-04-25 01:45 | 21.20868 | 79.51325 | 34897 ft | 566 kts | 75° |
| 2026-04-25 01:46 | 21.23094 | 79.59405 | 34900 ft | 566 kts | 75° |
| 2026-04-25 01:46 | 21.25311 | 79.67466 | 34884 ft | 565 kts | 75° |
| 2026-04-25 01:47 | 21.27522 | 79.75530 | 34884 ft | 566 kts | 76° |
| 2026-04-25 01:47 | 21.29737 | 79.83621 | 34896 ft | 565 kts | 75° |
| 2026-04-25 01:48 | 21.31934 | 79.91662 | 34910 ft | 566 kts | 75° |
| 2026-04-25 01:48 | 21.34147 | 79.99779 | 34920 ft | 566 kts | 76° |
| 2026-04-25 01:49 | 21.36354 | 80.07893 | 34914 ft | 565 kts | 75° |
| 2026-04-25 01:49 | 21.38555 | 80.15997 | 34916 ft | 565 kts | 76° |
| 2026-04-25 01:50 | 21.40746 | 80.24085 | 34916 ft | 565 kts | 75° |
| 2026-04-25 01:50 | 21.42930 | 80.32164 | 34920 ft | 567 kts | 75° |
| 2026-04-25 01:51 | 21.45118 | 80.40271 | 34926 ft | 566 kts | 75° |
| 2026-04-25 01:51 | 21.47296 | 80.48364 | 34929 ft | 566 kts | 75° |
| 2026-04-25 01:52 | 21.49474 | 80.56470 | 34947 ft | 566 kts | 75° |
| 2026-04-25 01:52 | 21.51651 | 80.64578 | 34978 ft | 566 kts | 75° |
| 2026-04-25 01:53 | 21.53833 | 80.72710 | 34987 ft | 567 kts | 76° |
| 2026-04-25 01:53 | 21.56023 | 80.80889 | 34998 ft | 566 kts | 76° |
| 2026-04-25 01:54 | 21.58189 | 80.88995 | 34977 ft | 566 kts | 76° |
| 2026-04-25 01:54 | 21.60346 | 80.97088 | 34957 ft | 566 kts | 75° |
| 2026-04-25 01:55 | 21.62506 | 81.05207 | 34943 ft | 566 kts | 75° |
| 2026-04-25 01:55 | 21.64672 | 81.13363 | 34938 ft | 566 kts | 75° |
| 2026-04-25 01:56 | 21.66813 | 81.21446 | 34932 ft | 567 kts | 76° |
| 2026-04-25 01:56 | 21.68969 | 81.29601 | 34928 ft | 567 kts | 76° |
| 2026-04-25 01:57 | 21.72297 | 81.41769 | 34921 ft | 568 kts | 74° |
| 2026-04-25 01:58 | 21.74537 | 81.49889 | 34918 ft | 566 kts | 74° |
| 2026-04-25 01:58 | 21.76775 | 81.58027 | 34917 ft | 568 kts | 74° |
| 2026-04-25 01:59 | 21.79000 | 81.66203 | 34902 ft | 568 kts | 76° |
| 2026-04-25 01:59 | 21.81009 | 81.74417 | 34891 ft | 568 kts | 77° |
| 2026-04-25 02:00 | 21.82996 | 81.82605 | 34886 ft | 567 kts | 76° |
| 2026-04-25 02:00 | 21.84989 | 81.90808 | 34892 ft | 569 kts | 76° |
| 2026-04-25 02:01 | 21.86991 | 81.99053 | 34892 ft | 568 kts | 77° |
| 2026-04-25 02:01 | 21.88978 | 82.07316 | 34892 ft | 570 kts | 77° |
| 2026-04-25 02:02 | 21.90944 | 82.15533 | 34893 ft | 569 kts | 76° |
| 2026-04-25 02:02 | 21.92913 | 82.23781 | 34905 ft | 569 kts | 77° |
| 2026-04-25 02:03 | 21.94878 | 82.32024 | 34910 ft | 569 kts | 77° |
| 2026-04-25 02:03 | 21.96838 | 82.40266 | 34914 ft | 569 kts | 77° |
| 2026-04-25 02:04 | 21.98792 | 82.48501 | 34911 ft | 571 kts | 77° |
| 2026-04-25 02:04 | 22.00761 | 82.56818 | 34911 ft | 571 kts | 77° |
| 2026-04-25 02:05 | 22.02714 | 82.65087 | 34914 ft | 571 kts | 77° |
| 2026-04-25 02:05 | 22.04658 | 82.73337 | 34900 ft | 571 kts | 77° |
| 2026-04-25 02:06 | 22.06614 | 82.81660 | 34900 ft | 572 kts | 77° |
| 2026-04-25 02:06 | 22.08553 | 82.89930 | 34899 ft | 571 kts | 77° |
| 2026-04-25 02:07 | 22.10493 | 82.98220 | 34895 ft | 571 kts | 77° |
| 2026-04-25 02:07 | 22.12436 | 83.06546 | 34903 ft | 572 kts | 76° |
| 2026-04-25 02:08 | 22.14371 | 83.14858 | 34916 ft | 571 kts | 77° |
| 2026-04-25 02:08 | 22.16291 | 83.23128 | 34931 ft | 571 kts | 77° |
| 2026-04-25 02:09 | 22.18212 | 83.31421 | 34934 ft | 570 kts | 76° |
| 2026-04-25 02:09 | 22.20116 | 83.39704 | 34927 ft | 569 kts | 77° |
| 2026-04-25 02:10 | 22.22022 | 83.48035 | 34917 ft | 570 kts | 77° |
| 2026-04-25 02:10 | 22.23912 | 83.56316 | 34924 ft | 570 kts | 76° |
| 2026-04-25 02:11 | 22.25795 | 83.64585 | 34930 ft | 569 kts | 77° |
| 2026-04-25 02:11 | 22.27682 | 83.72896 | 34931 ft | 569 kts | 77° |
| 2026-04-25 02:12 | 22.29564 | 83.81201 | 34936 ft | 570 kts | 77° |
| 2026-04-25 02:12 | 22.31437 | 83.89487 | 34936 ft | 568 kts | 77° |
| 2026-04-25 02:13 | 22.33336 | 83.97811 | 34934 ft | 571 kts | 76° |
| 2026-04-25 02:13 | 22.35265 | 84.06126 | 34928 ft | 569 kts | 76° |
| 2026-04-25 02:14 | 22.37178 | 84.14401 | 34939 ft | 570 kts | 76° |
| 2026-04-25 02:14 | 22.39103 | 84.22750 | 34940 ft | 570 kts | 76° |
| 2026-04-25 02:15 | 22.41009 | 84.31038 | 34939 ft | 570 kts | 76° |
| 2026-04-25 02:15 | 22.42912 | 84.39339 | 34938 ft | 570 kts | 76° |
| 2026-04-25 02:16 | 22.44806 | 84.47621 | 34935 ft | 570 kts | 76° |
| 2026-04-25 02:16 | 22.46710 | 84.55970 | 34940 ft | 571 kts | 76° |
| 2026-04-25 02:17 | 22.48601 | 84.64285 | 34938 ft | 569 kts | 76° |
| 2026-04-25 02:17 | 22.50489 | 84.72601 | 34926 ft | 570 kts | 77° |
| 2026-04-25 02:18 | 22.52367 | 84.80904 | 34926 ft | 570 kts | 76° |
| 2026-04-25 02:18 | 22.54219 | 84.89281 | 34928 ft | 571 kts | 77° |
| 2026-04-25 02:19 | 22.56018 | 84.97648 | 34926 ft | 570 kts | 77° |
| 2026-04-25 02:19 | 22.57803 | 85.05965 | 34926 ft | 571 kts | 77° |
| 2026-04-25 02:20 | 22.59597 | 85.14331 | 34930 ft | 571 kts | 77° |
| 2026-04-25 02:20 | 22.61391 | 85.22719 | 34927 ft | 572 kts | 77° |
| 2026-04-25 02:21 | 22.63171 | 85.31062 | 34928 ft | 571 kts | 77° |
| 2026-04-25 02:21 | 22.64958 | 85.39458 | 34938 ft | 571 kts | 77° |
| 2026-04-25 02:22 | 22.66729 | 85.47800 | 34945 ft | 571 kts | 77° |
| 2026-04-25 02:22 | 22.68506 | 85.56191 | 34945 ft | 572 kts | 77° |
| 2026-04-25 02:23 | 22.70273 | 85.64560 | 34937 ft | 570 kts | 77° |
| 2026-04-25 02:23 | 22.72036 | 85.72932 | 34901 ft | 571 kts | 77° |
| 2026-04-25 02:24 | 22.73803 | 85.81345 | 34896 ft | 570 kts | 77° |
| 2026-04-25 02:24 | 22.75553 | 85.89700 | 34886 ft | 572 kts | 77° |
| 2026-04-25 02:25 | 22.77306 | 85.98092 | 34882 ft | 571 kts | 77° |
| 2026-04-25 02:25 | 22.79051 | 86.06471 | 34877 ft | 573 kts | 77° |
| 2026-04-25 02:26 | 22.80800 | 86.14889 | 34880 ft | 571 kts | 77° |
| 2026-04-25 02:26 | 22.82538 | 86.23280 | 34896 ft | 573 kts | 77° |
| 2026-04-25 02:27 | 22.84281 | 86.31708 | 34916 ft | 571 kts | 77° |
| 2026-04-25 02:27 | 22.86019 | 86.40112 | 34943 ft | 572 kts | 77° |
| 2026-04-25 02:28 | 22.87761 | 86.48540 | 34965 ft | 572 kts | 77° |
| 2026-04-25 02:28 | 22.89504 | 86.56968 | 34998 ft | 571 kts | 77° |
| 2026-04-25 02:29 | 22.91241 | 86.65372 | 35026 ft | 573 kts | 77° |
| 2026-04-25 02:29 | 22.92987 | 86.73817 | 34999 ft | 572 kts | 77° |
| 2026-04-25 02:30 | 22.94722 | 86.82211 | 34978 ft | 573 kts | 77° |
| 2026-04-25 02:30 | 22.96454 | 86.90593 | 34954 ft | 572 kts | 77° |
| 2026-04-25 02:31 | 22.98204 | 86.99065 | 34935 ft | 574 kts | 77° |
| 2026-04-25 02:31 | 22.99951 | 87.07519 | 34931 ft | 572 kts | 76° |
| 2026-04-25 02:32 | 23.01693 | 87.15954 | 34939 ft | 573 kts | 77° |
| 2026-04-25 02:32 | 23.03428 | 87.24353 | 34944 ft | 574 kts | 77° |
| 2026-04-25 02:33 | 23.05177 | 87.32824 | 34962 ft | 574 kts | 77° |
| 2026-04-25 02:33 | 23.06914 | 87.41238 | 34984 ft | 573 kts | 77° |
| 2026-04-25 02:34 | 23.08660 | 87.49693 | 35008 ft | 574 kts | 77° |
| 2026-04-25 02:34 | 23.10387 | 87.58056 | 35040 ft | 573 kts | 77° |
| 2026-04-25 02:35 | 23.12127 | 87.66489 | 35050 ft | 574 kts | 77° |
| 2026-04-25 02:35 | 23.13851 | 87.74844 | 35010 ft | 574 kts | 77° |
| 2026-04-25 02:36 | 23.15598 | 87.83302 | 34981 ft | 574 kts | 77° |
| 2026-04-25 02:36 | 23.17350 | 87.91776 | 34933 ft | 574 kts | 77° |
| 2026-04-25 02:37 | 23.19079 | 88.00125 | 34877 ft | 557 kts | 76° |
| 2026-04-25 02:37 | 23.20763 | 88.08247 | 34778 ft | 547 kts | 76° |
| 2026-04-25 02:37 | 23.21602 | 88.12294 | 34248 ft | 545 kts | 76° |
| 2026-04-25 02:38 | 23.22435 | 88.16307 | 33210 ft | 551 kts | 76° |
| 2026-04-25 02:38 | 23.23221 | 88.20402 | 32123 ft | 559 kts | 76° |
| 2026-04-25 02:38 | 23.24131 | 88.24480 | 31397 ft | 558 kts | 75° |
| 2026-04-25 02:38 | 23.25049 | 88.28567 | 30960 ft | 551 kts | 79° |
| 2026-04-25 02:39 | 23.25323 | 88.32660 | 30485 ft | 542 kts | 95° |
| 2026-04-25 02:39 | 23.24700 | 88.36666 | 29864 ft | 533 kts | 110° |
| 2026-04-25 02:39 | 23.23238 | 88.40270 | 29262 ft | 520 kts | 126° |
| 2026-04-25 02:39 | 23.21022 | 88.43293 | 28801 ft | 502 kts | 141° |
| 2026-04-25 02:40 | 23.18295 | 88.45499 | 28269 ft | 485 kts | 156° |
| 2026-04-25 02:40 | 23.15218 | 88.46812 | 27663 ft | 469 kts | 172° |
| 2026-04-25 02:40 | 23.12016 | 88.47148 | 27031 ft | 455 kts | 188° |
| 2026-04-25 02:40 | 23.08948 | 88.46509 | 26335 ft | 444 kts | 204° |
| 2026-04-25 02:41 | 23.06120 | 88.45139 | 25642 ft | 438 kts | 212° |
| 2026-04-25 02:41 | 23.03703 | 88.43168 | 24923 ft | 432 kts | 229° |
| 2026-04-25 02:41 | 23.01984 | 88.40562 | 24195 ft | 428 kts | 245° |
| 2026-04-25 02:41 | 23.01012 | 88.37517 | 23519 ft | 424 kts | 257° |
| 2026-04-25 02:42 | 23.00396 | 88.34405 | 22923 ft | 421 kts | 264° |
| 2026-04-25 02:42 | 23.00479 | 88.31258 | 22251 ft | 418 kts | 281° |
| 2026-04-25 02:42 | 23.01457 | 88.28305 | 21565 ft | 418 kts | 299° |
| 2026-04-25 02:42 | 23.03244 | 88.25828 | 20952 ft | 417 kts | 316° |
| 2026-04-25 02:43 | 23.05645 | 88.24086 | 20375 ft | 417 kts | 334° |
| 2026-04-25 02:43 | 23.08443 | 88.23236 | 19812 ft | 417 kts | 352° |
| 2026-04-25 02:43 | 23.11327 | 88.23287 | 19283 ft | 415 kts | 4° |
| 2026-04-25 02:43 | 23.14127 | 88.23918 | 18758 ft | 414 kts | 19° |
| 2026-04-25 02:44 | 23.16619 | 88.25442 | 18216 ft | 413 kts | 38° |
| 2026-04-25 02:44 | 23.18543 | 88.27737 | 17700 ft | 412 kts | 56° |
| 2026-04-25 02:44 | 23.19704 | 88.30597 | 17191 ft | 410 kts | 75° |
| 2026-04-25 02:44 | 23.20231 | 88.33597 | 16696 ft | 407 kts | 80° |
| 2026-04-25 02:45 | 23.20646 | 88.36607 | 16197 ft | 404 kts | 81° |
| 2026-04-25 02:45 | 23.21049 | 88.39628 | 15697 ft | 400 kts | 80° |
| 2026-04-25 02:45 | 23.21436 | 88.42596 | 15187 ft | 398 kts | 80° |
| 2026-04-25 02:45 | 23.21818 | 88.45567 | 14687 ft | 395 kts | 81° |
| 2026-04-25 02:46 | 23.22193 | 88.48520 | 14196 ft | 392 kts | 80° |
| 2026-04-25 02:46 | 23.22308 | 88.51432 | 13684 ft | 391 kts | 95° |
| 2026-04-25 02:46 | 23.21546 | 88.54291 | 13151 ft | 391 kts | 115° |
| 2026-04-25 02:46 | 23.19991 | 88.56657 | 12628 ft | 391 kts | 134° |
| 2026-04-25 02:47 | 23.17781 | 88.58366 | 12069 ft | 390 kts | 153° |
| 2026-04-25 02:47 | 23.15334 | 88.59563 | 11898 ft | 377 kts | 156° |
| 2026-04-25 02:47 | 23.12965 | 88.60647 | 11839 ft | 362 kts | 161° |
| 2026-04-25 02:47 | 23.10512 | 88.61101 | 11644 ft | 351 kts | 182° |
| 2026-04-25 02:48 | 23.08156 | 88.60613 | 11184 ft | 348 kts | 204° |
| 2026-04-25 02:48 | 23.06134 | 88.59212 | 10765 ft | 340 kts | 227° |
| 2026-04-25 02:48 | 23.04779 | 88.57153 | 10276 ft | 334 kts | 249° |
| 2026-04-25 02:48 | 23.04025 | 88.54800 | 10013 ft | 324 kts | 256° |
| 2026-04-25 02:49 | 23.03467 | 88.52505 | 9965 ft | 307 kts | 267° |
| 2026-04-25 02:49 | 23.03478 | 88.50253 | 9892 ft | 291 kts | 274° |
| 2026-04-25 02:49 | 23.03148 | 88.48091 | 9626 ft | 290 kts | 249° |
| 2026-04-25 02:49 | 23.02015 | 88.46282 | 9047 ft | 297 kts | 224° |
| 2026-04-25 02:50 | 23.00251 | 88.45147 | 8459 ft | 302 kts | 198° |
| 2026-04-25 02:50 | 22.98225 | 88.44560 | 8019 ft | 297 kts | 194° |
| 2026-04-25 02:50 | 22.96182 | 88.44360 | 7506 ft | 296 kts | 171° |
| 2026-04-25 02:50 | 22.94266 | 88.45093 | 6991 ft | 292 kts | 144° |
| 2026-04-25 02:51 | 22.92833 | 88.46624 | 6551 ft | 285 kts | 125° |
| 2026-04-25 02:51 | 22.91553 | 88.48189 | 6116 ft | 280 kts | 144° |
| 2026-04-25 02:51 | 22.89807 | 88.49033 | 5620 ft | 277 kts | 171° |
| 2026-04-25 02:51 | 22.87878 | 88.48949 | 5093 ft | 275 kts | 191° |
| 2026-04-25 02:52 | 22.86040 | 88.48470 | 4688 ft | 271 kts | 194° |
| 2026-04-25 02:52 | 22.84205 | 88.47890 | 4007 ft | 277 kts | 197° |
| 2026-04-25 02:52 | 22.82376 | 88.47237 | 3395 ft | 279 kts | 198° |
| 2026-04-25 02:52 | 22.80495 | 88.46564 | 2560 ft | 287 kts | 194° |
| 2026-04-25 02:53 | 22.78561 | 88.46198 | 2220 ft | 282 kts | 187° |
| 2026-04-25 02:53 | 22.76656 | 88.45969 | 1873 ft | 262 kts | 185° |
| 2026-04-25 02:53 | 22.74870 | 88.45812 | 1550 ft | 246 kts | 184° |
| 2026-04-25 02:53 | 22.73207 | 88.45670 | 1245 ft | 232 kts | 185° |
| 2026-04-25 02:54 | 22.71624 | 88.45494 | 947 ft | 221 kts | 186° |
| 2026-04-25 02:54 | 22.70142 | 88.45320 | 665 ft | 209 kts | 185° |
| 2026-04-25 02:54 | 22.68729 | 88.45162 | 325 ft | 200 kts | 185° |
| 2026-04-25 02:54 | 22.67374 | 88.45001 | 60 ft | 186 kts | 186° |
| 2026-04-25 02:55 | 22.66297 | 88.44876 | 29 ft | 110 kts | 187° |
| 2026-04-25 02:55 | 22.65774 | 88.44823 | 27 ft | 62 kts | 185° |
| 2026-04-25 02:55 | 22.65414 | 88.44726 | 30 ft | 33 kts | 220° |
| 2026-04-25 02:55 | 22.65283 | 88.44603 | 34 ft | 19 kts | 220° |
| 2026-04-25 02:56 | 22.65175 | 88.44537 | 35 ft | 16 kts | 188° |
| 2026-04-25 02:56 | 22.65067 | 88.44524 | 34 ft | 14 kts | 186° |
| 2026-04-25 02:56 | 22.65005 | 88.44466 | 35 ft | 12 kts | 258° |
| 2026-04-25 02:56 | 22.64966 | 88.44404 | 35 ft | 10 kts | 200° |
| 2026-04-25 02:57 | 22.64892 | 88.44389 | 33 ft | 11 kts | 188° |
| 2026-04-25 02:57 | 22.64814 | 88.44379 | 32 ft | 11 kts | 187° |
| 2026-04-25 02:57 | 22.64734 | 88.44368 | 30 ft | 11 kts | 186° |
| 2026-04-25 02:57 | 22.64633 | 88.44357 | 30 ft | 21 kts | 186° |
| 2026-04-25 02:58 | 22.64535 | 88.44310 | 29 ft | 13 kts | 229° |
| 2026-04-25 02:58 | 22.64513 | 88.44224 | 31 ft | 10 kts | 269° |
| 2026-04-25 02:58 | 22.64506 | 88.44159 | 31 ft | 7 kts | 274° |
| 2026-04-25 02:58 | 22.64509 | 88.44117 | 32 ft | 0 kts | 273° |